createdAt,value
2017-07-08T00:01:44.837Z,19.90
2017-07-08T00:04:11.153Z,22.00
2017-07-08T00:06:38.132Z,21.00
2017-07-08T00:09:04.431Z,22.60
2017-07-08T00:11:30.743Z,22.43
2017-07-08T00:13:57.133Z,22.83
2017-07-08T00:16:23.492Z,22.07
2017-07-08T00:18:49.794Z,22.43
2017-07-08T00:21:16.109Z,22.30
2017-07-08T00:23:43.718Z,24.67
2017-07-08T00:26:10.044Z,18.60
2017-07-08T00:28:36.393Z,25.83
2017-07-08T00:31:03.114Z,21.97
2017-07-08T00:33:29.440Z,21.43
2017-07-08T00:35:55.786Z,21.77
2017-07-08T00:38:22.256Z,20.03
2017-07-08T00:40:49.321Z,22.10
2017-07-08T00:43:15.656Z,25.10
2017-07-08T00:45:41.996Z,21.03
2017-07-08T00:48:08.391Z,24.50
2017-07-08T00:50:34.782Z,23.47
2017-07-08T00:53:01.097Z,24.87
2017-07-08T00:55:27.433Z,27.97
2017-07-08T00:57:53.765Z,21.60
2017-07-08T01:00:20.084Z,23.90
2017-07-08T01:02:46.427Z,21.90
2017-07-08T01:05:12.817Z,21.23
2017-07-08T01:07:39.155Z,22.50
2017-07-08T01:10:05.494Z,25.00
2017-07-08T01:12:31.834Z,23.90
2017-07-08T01:14:58.174Z,21.97
2017-07-08T01:17:24.706Z,24.37
2017-07-08T01:19:51.315Z,25.80
2017-07-08T01:22:17.632Z,24.43
2017-07-08T01:24:44.427Z,26.17
2017-07-08T01:27:10.763Z,25.47
2017-07-08T01:29:37.297Z,28.83
2017-07-08T01:32:03.655Z,25.90
2017-07-08T01:34:30.266Z,25.17
2017-07-08T01:36:56.845Z,25.37
2017-07-08T01:39:23.412Z,26.13
2017-07-08T01:41:50.021Z,30.70
2017-07-08T01:44:16.602Z,30.70
2017-07-08T01:46:43.177Z,27.90
2017-07-08T01:49:09.768Z,27.30
2017-07-08T01:51:36.442Z,30.43
2017-07-08T01:54:03.026Z,26.13
2017-07-08T01:56:29.623Z,29.43
2017-07-08T01:58:56.900Z,30.10
2017-07-08T02:01:23.460Z,32.03
2017-07-08T02:03:50.104Z,29.30
2017-07-08T02:06:17.436Z,27.10
2017-07-08T02:08:43.768Z,31.97
2017-07-08T02:11:10.080Z,27.13
2017-07-08T02:13:36.412Z,29.87
2017-07-08T02:16:02.769Z,30.70
2017-07-08T02:18:29.087Z,25.50
2017-07-08T02:20:55.609Z,28.13
2017-07-08T02:23:22.334Z,27.90
2017-07-08T02:25:49.404Z,34.83
2017-07-08T02:28:16.014Z,29.00
2017-07-08T02:30:43.085Z,32.13
2017-07-08T02:33:09.426Z,29.07
2017-07-08T02:35:36.027Z,29.13
2017-07-08T02:38:02.566Z,31.00
2017-07-08T02:40:29.123Z,29.20
2017-07-08T02:42:55.693Z,31.30
2017-07-08T02:45:22.170Z,29.30
2017-07-08T02:47:49.241Z,33.23
2017-07-08T02:50:15.564Z,30.60
2017-07-08T02:52:41.902Z,31.77
2017-07-08T02:55:08.222Z,37.93
2017-07-08T02:57:34.544Z,32.27
2017-07-08T03:00:01.117Z,32.07
2017-07-08T03:02:27.689Z,34.83
2017-07-08T03:04:54.997Z,32.93
2017-07-08T03:07:21.317Z,37.97
2017-07-08T03:09:47.629Z,39.77
2017-07-08T03:14:47.580Z,39.67
2017-07-08T03:17:14.295Z,42.60
2017-07-08T03:19:40.644Z,42.80
2017-07-08T03:22:06.974Z,42.03
2017-07-08T03:24:33.373Z,41.40
2017-07-08T03:26:59.807Z,42.93
2017-07-08T03:29:26.891Z,55.77
2017-07-08T03:31:53.243Z,45.27
2017-07-08T03:34:19.556Z,46.70
2017-07-08T03:36:45.905Z,43.60
2017-07-08T03:39:12.265Z,38.83
2017-07-08T03:41:38.667Z,45.10
2017-07-08T03:44:04.987Z,44.47
2017-07-08T03:46:31.329Z,46.43
2017-07-08T03:48:57.649Z,45.27
2017-07-08T03:51:24.026Z,45.20
2017-07-08T03:53:50.354Z,42.37
2017-07-08T03:56:17.477Z,44.70
2017-07-08T03:58:43.808Z,43.20
2017-07-08T04:01:10.276Z,45.33
2017-07-08T04:03:36.597Z,47.00
2017-07-08T04:06:02.937Z,41.30
2017-07-08T04:08:30.010Z,47.97
2017-07-08T04:10:56.402Z,41.57
2017-07-08T04:13:22.842Z,42.83
2017-07-08T04:15:49.236Z,40.80
2017-07-08T04:18:15.647Z,42.00
2017-07-08T04:20:42.003Z,40.83
2017-07-08T04:23:08.514Z,41.67
2017-07-08T04:25:34.908Z,43.10
2017-07-08T04:28:01.323Z,44.90
2017-07-08T04:30:28.384Z,43.03
2017-07-08T04:32:55.458Z,38.93
2017-07-08T04:35:21.783Z,37.97
2017-07-08T04:37:48.138Z,40.43
2017-07-08T04:40:14.503Z,33.43
2017-07-08T04:42:40.865Z,40.73
2017-07-08T04:45:07.233Z,38.70
2017-07-08T04:47:33.572Z,41.23
2017-07-08T04:49:59.896Z,47.40
2017-07-08T04:52:26.244Z,46.67
2017-07-08T04:54:52.692Z,47.37
2017-07-08T04:57:19.009Z,48.50
2017-07-08T04:59:45.334Z,43.07
2017-07-08T05:02:11.703Z,36.33
2017-07-08T05:04:38.334Z,44.53
2017-07-08T05:07:04.863Z,37.93
2017-07-08T05:09:31.426Z,39.83
2017-07-08T05:11:57.746Z,38.17
2017-07-08T05:14:24.276Z,36.33
2017-07-08T05:16:50.884Z,39.60
2017-07-08T05:19:17.416Z,37.03
2017-07-08T05:21:43.958Z,38.80
2017-07-08T05:24:10.545Z,33.73
2017-07-08T05:29:10.608Z,33.70
2017-07-08T05:31:37.005Z,34.87
2017-07-08T05:34:04.180Z,31.20
2017-07-08T05:36:30.524Z,31.60
2017-07-08T05:38:56.914Z,33.00
2017-07-08T05:41:23.513Z,31.40
2017-07-08T05:43:50.644Z,34.00
2017-07-08T05:46:16.973Z,33.30
2017-07-08T05:48:43.325Z,31.27
2017-07-08T05:51:09.694Z,32.27
2017-07-08T05:53:36.048Z,31.13
2017-07-08T05:56:02.449Z,28.00
2017-07-08T05:58:29.538Z,33.57
2017-07-08T06:00:55.950Z,33.67
2017-07-08T06:03:22.337Z,34.93
2017-07-08T06:05:48.663Z,35.90
2017-07-08T06:08:15.019Z,30.43
2017-07-08T06:10:41.356Z,30.80
2017-07-08T06:13:07.700Z,31.97
2017-07-08T06:15:34.047Z,29.47
2017-07-08T06:18:00.405Z,29.47
2017-07-08T06:20:26.745Z,31.13
2017-07-08T06:22:53.085Z,30.83
2017-07-08T06:25:19.509Z,31.70
2017-07-08T06:27:46.677Z,32.13
2017-07-08T06:30:12.993Z,29.60
2017-07-08T06:32:40.246Z,29.60
2017-07-08T06:35:07.129Z,26.37
2017-07-08T06:37:33.448Z,30.87
2017-07-08T06:39:59.935Z,30.73
2017-07-08T06:42:26.325Z,26.40
2017-07-08T06:44:52.671Z,27.67
2017-07-08T06:47:18.999Z,25.63
2017-07-08T06:49:45.443Z,28.37
2017-07-08T06:52:11.765Z,23.33
2017-07-08T06:54:38.269Z,28.47
2017-07-08T06:57:04.878Z,25.27
2017-07-08T06:59:31.204Z,26.20
2017-07-08T07:01:57.607Z,28.33
2017-07-08T07:04:23.939Z,33.73
2017-07-08T07:06:50.389Z,29.67
2017-07-08T07:09:16.717Z,26.67
2017-07-08T07:11:43.082Z,28.33
2017-07-08T07:14:10.181Z,23.70
2017-07-08T07:16:36.554Z,30.23
2017-07-08T07:19:02.870Z,28.77
2017-07-08T07:21:30.012Z,25.83
2017-07-08T07:23:56.319Z,26.30
2017-07-08T07:26:22.880Z,27.40
2017-07-08T07:28:49.251Z,27.37
2017-07-08T07:31:15.833Z,30.63
2017-07-08T07:33:42.160Z,26.53
2017-07-08T07:36:08.492Z,28.20
2017-07-08T07:38:34.807Z,30.70
2017-07-08T07:41:01.130Z,30.07
2017-07-08T07:43:27.444Z,30.13
2017-07-08T07:45:53.760Z,30.30
2017-07-08T07:48:20.306Z,27.73
2017-07-08T07:50:46.824Z,24.10
2017-07-08T07:53:13.395Z,26.00
2017-07-08T07:55:40.050Z,26.03
2017-07-08T07:58:06.372Z,23.90
2017-07-08T08:00:32.918Z,23.70
2017-07-08T08:02:59.451Z,24.03
2017-07-08T08:05:26.103Z,21.17
2017-07-08T08:07:52.881Z,20.00
2017-07-08T08:10:19.477Z,18.53
2017-07-08T08:12:46.753Z,18.50
2017-07-08T08:15:13.295Z,22.03
2017-07-08T08:17:40.607Z,17.43
2017-07-08T08:20:07.140Z,22.90
2017-07-08T08:22:33.676Z,19.90
2017-07-08T08:25:00.227Z,20.53
2017-07-08T08:27:27.498Z,16.23
2017-07-08T08:29:54.545Z,13.13
2017-07-08T08:32:20.931Z,19.27
2017-07-08T08:34:47.241Z,16.13
2017-07-08T08:37:13.565Z,19.53
2017-07-08T08:39:39.906Z,18.50
2017-07-08T08:42:06.450Z,16.63
2017-07-08T08:44:32.973Z,16.83
2017-07-08T08:46:59.281Z,14.40
2017-07-08T08:49:25.808Z,18.73
2017-07-08T08:51:52.353Z,13.60
2017-07-08T08:54:18.890Z,15.97
2017-07-08T08:56:46.361Z,16.33
2017-07-08T08:59:12.902Z,14.83
2017-07-08T09:01:39.467Z,17.47
2017-07-08T09:04:06.069Z,16.00
2017-07-08T09:06:32.604Z,14.57
2017-07-08T09:09:00.055Z,16.03
2017-07-08T09:11:27.234Z,13.80
2017-07-08T09:13:53.557Z,16.03
2017-07-08T09:16:20.090Z,16.57
2017-07-08T09:18:46.677Z,14.87
2017-07-08T09:21:13.269Z,15.20
2017-07-08T09:23:41.314Z,16.03
2017-07-08T09:26:07.906Z,14.77
2017-07-08T09:28:40.741Z,15.73
2017-07-08T09:31:08.070Z,12.77
2017-07-08T09:33:34.598Z,15.70
2017-07-08T09:36:01.164Z,12.20
2017-07-08T09:38:27.737Z,11.30
2017-07-08T09:40:54.290Z,16.30
2017-07-08T09:43:20.911Z,13.00
2017-07-08T09:45:48.096Z,14.20
2017-07-08T09:48:15.381Z,13.27
2017-07-08T09:50:42.087Z,17.40
2017-07-08T09:53:08.625Z,15.13
2017-07-08T09:55:35.185Z,11.93
2017-07-08T09:58:01.938Z,14.00
2017-07-08T10:00:28.432Z,12.07
2017-07-08T10:02:55.124Z,10.77
2017-07-08T10:05:21.660Z,8.33
2017-07-08T10:07:48.203Z,12.20
2017-07-08T10:10:14.788Z,10.00
2017-07-08T10:12:41.454Z,10.57
2017-07-08T10:15:08.735Z,10.53
2017-07-08T10:17:35.334Z,10.07
2017-07-08T10:20:01.909Z,8.53
2017-07-08T10:22:28.560Z,11.17
2017-07-08T10:24:55.129Z,12.40
2017-07-08T10:27:21.713Z,11.20
2017-07-08T10:29:48.362Z,11.03
2017-07-08T10:32:15.622Z,11.23
2017-07-08T10:34:42.171Z,13.30
2017-07-08T10:37:08.734Z,10.40
2017-07-08T10:39:35.401Z,9.30
2017-07-08T10:42:01.971Z,10.37
2017-07-08T10:44:28.510Z,9.40
2017-07-08T10:46:55.085Z,11.80
2017-07-08T10:49:21.655Z,8.20
2017-07-08T10:51:48.245Z,7.37
2017-07-08T10:54:14.949Z,7.30
2017-07-08T10:56:48.308Z,9.00
2017-07-08T10:59:15.402Z,10.20
2017-07-08T11:01:41.757Z,9.77
2017-07-08T11:04:08.865Z,9.50
2017-07-08T11:06:35.217Z,9.53
2017-07-08T11:09:01.799Z,8.20
2017-07-08T11:11:30.934Z,7.87
2017-07-08T11:13:57.300Z,7.03
2017-07-08T11:16:23.638Z,7.63
2017-07-08T11:18:49.982Z,7.87
2017-07-08T11:21:17.085Z,8.60
2017-07-08T11:23:43.442Z,8.30
2017-07-08T11:26:09.789Z,9.17
2017-07-08T11:28:36.936Z,8.97
2017-07-08T11:31:03.236Z,8.80
2017-07-08T11:33:29.580Z,7.20
2017-07-08T11:35:55.967Z,9.63
2017-07-08T11:38:22.322Z,8.10
2017-07-08T11:40:48.661Z,8.40
2017-07-08T11:43:15.019Z,8.77
2017-07-08T11:45:41.461Z,8.57
2017-07-08T11:48:07.799Z,6.83
2017-07-08T11:50:34.161Z,7.13
2017-07-08T11:53:00.515Z,7.70
2017-07-08T11:55:26.860Z,8.40
2017-07-08T11:57:53.195Z,6.43
2017-07-08T12:00:19.537Z,7.17
2017-07-08T12:02:46.613Z,7.60
2017-07-08T12:05:13.700Z,7.87
2017-07-08T12:10:31.306Z,8.00
2017-07-08T12:12:57.701Z,7.70
2017-07-08T12:15:24.787Z,6.77
2017-07-08T12:17:51.097Z,7.23
2017-07-08T12:20:17.423Z,8.03
2017-07-08T12:22:43.736Z,6.83
2017-07-08T12:25:10.078Z,6.73
2017-07-08T12:27:37.150Z,6.60
2017-07-08T12:30:03.468Z,6.90
2017-07-08T12:32:29.789Z,7.47
2017-07-08T12:34:56.850Z,7.33
2017-07-08T12:37:23.353Z,7.10
2017-07-08T12:39:49.766Z,7.93
2017-07-08T12:42:16.092Z,6.60
2017-07-08T12:44:42.423Z,7.47
2017-07-08T12:47:08.811Z,7.57
2017-07-08T12:49:35.152Z,7.47
2017-07-08T12:52:01.601Z,7.23
2017-07-08T12:54:28.709Z,6.67
2017-07-08T12:56:55.057Z,6.10
2017-07-08T12:59:21.392Z,6.70
2017-07-08T13:01:47.746Z,6.50
2017-07-08T13:04:14.080Z,6.80
2017-07-08T13:06:40.378Z,7.33
2017-07-08T13:09:06.698Z,6.13
2017-07-08T13:11:33.001Z,8.20
2017-07-08T13:14:00.095Z,7.93
2017-07-08T13:16:26.428Z,6.00
2017-07-08T13:18:52.737Z,6.07
2017-07-08T13:21:19.064Z,7.13
2017-07-08T13:23:45.396Z,7.53
2017-07-08T13:26:11.736Z,6.37
2017-07-08T13:28:38.111Z,7.90
2017-07-08T13:31:04.543Z,6.33
2017-07-08T13:33:30.904Z,7.83
2017-07-08T13:35:57.369Z,9.60
2017-07-08T13:38:38.649Z,7.03
2017-07-08T13:41:04.983Z,7.17
2017-07-08T13:43:31.340Z,8.07
2017-07-08T13:45:57.697Z,7.90
2017-07-08T13:48:24.084Z,8.37
2017-07-08T13:50:51.185Z,7.47
2017-07-08T13:53:17.597Z,8.30
2017-07-08T13:55:43.949Z,8.93
2017-07-08T13:58:10.285Z,7.90
2017-07-08T14:00:36.673Z,8.33
2017-07-08T14:03:03.033Z,8.50
2017-07-08T14:05:29.402Z,8.03
2017-07-08T14:07:56.500Z,8.70
2017-07-08T14:10:23.604Z,11.10
2017-07-08T14:12:50.069Z,10.27
2017-07-08T14:15:16.429Z,10.57
2017-07-08T14:17:42.781Z,9.93
2017-07-08T14:20:09.152Z,9.20
2017-07-08T14:22:35.592Z,11.70
2017-07-08T14:25:01.922Z,9.33
2017-07-08T14:27:28.529Z,11.70
2017-07-08T14:29:55.238Z,10.80
2017-07-08T14:32:21.604Z,10.47
2017-07-08T14:34:48.049Z,11.00
2017-07-08T14:37:14.583Z,11.90
2017-07-08T14:39:40.925Z,10.13
2017-07-08T14:42:07.267Z,13.10
2017-07-08T14:44:33.633Z,12.30
2017-07-08T14:47:00.086Z,12.17
2017-07-08T14:49:26.449Z,11.60
2017-07-08T14:51:54.117Z,11.90
2017-07-08T14:54:27.376Z,11.43
2017-07-08T14:56:53.758Z,13.43
2017-07-08T14:59:20.218Z,12.70
2017-07-08T15:01:46.702Z,11.87
2017-07-08T15:04:13.058Z,11.13
2017-07-08T15:06:39.380Z,13.37
2017-07-08T15:09:06.467Z,13.43
2017-07-08T15:11:32.808Z,10.70
2017-07-08T15:13:59.126Z,11.30
2017-07-08T15:16:25.458Z,9.50
2017-07-08T15:18:51.943Z,9.13
2017-07-08T15:21:18.556Z,10.43
2017-07-08T15:23:44.885Z,11.60
2017-07-08T15:26:11.199Z,10.63
2017-07-08T15:28:38.445Z,10.80
2017-07-08T15:31:06.666Z,10.60
2017-07-08T15:33:33.092Z,11.03
2017-07-08T15:35:59.859Z,9.40
2017-07-08T15:38:27.384Z,10.70
2017-07-08T15:40:54.589Z,10.77
2017-07-08T15:43:21.247Z,10.30
2017-07-08T15:45:47.629Z,10.13
2017-07-08T15:48:14.018Z,9.53
2017-07-08T15:50:40.464Z,9.23
2017-07-08T15:53:22.807Z,7.77
2017-07-08T15:55:49.550Z,8.53
2017-07-08T15:58:15.983Z,10.37
2017-07-08T16:00:42.570Z,9.57
2017-07-08T16:03:09.678Z,8.87
2017-07-08T16:05:36.071Z,8.67
2017-07-08T16:08:02.481Z,9.27
2017-07-08T16:10:28.958Z,9.17
2017-07-08T16:12:55.374Z,10.90
2017-07-08T16:15:21.914Z,9.43
2017-07-08T16:17:48.284Z,10.00
2017-07-08T16:20:14.626Z,8.73
2017-07-08T16:22:41.037Z,11.30
2017-07-08T16:25:07.357Z,10.00
2017-07-08T16:27:33.822Z,9.30
2017-07-08T16:30:00.213Z,11.00
2017-07-08T16:32:26.560Z,9.90
2017-07-08T16:34:52.891Z,10.70
2017-07-08T16:37:19.242Z,9.53
2017-07-08T16:39:45.801Z,10.60
2017-07-08T16:42:12.881Z,9.33
2017-07-08T16:44:39.811Z,9.37
2017-07-08T16:47:06.627Z,8.47
2017-07-08T16:49:34.880Z,9.07
2017-07-08T16:52:01.240Z,8.53
2017-07-08T16:54:27.570Z,8.10
2017-07-08T16:56:54.636Z,7.83
2017-07-08T16:59:20.985Z,8.33
2017-07-08T17:01:47.549Z,7.90
2017-07-08T17:04:13.957Z,8.33
2017-07-08T17:06:41.185Z,8.60
2017-07-08T17:09:07.524Z,8.30
2017-07-08T17:11:33.917Z,7.60
2017-07-08T17:14:00.334Z,8.17
2017-07-08T17:16:27.743Z,7.70
2017-07-08T17:18:54.894Z,8.77
2017-07-08T17:21:21.254Z,8.30
2017-07-08T17:23:47.661Z,7.47
2017-07-08T17:26:14.002Z,7.30
2017-07-08T17:28:40.365Z,6.87
2017-07-08T17:31:06.685Z,8.20
2017-07-08T17:33:33.045Z,8.17
2017-07-08T17:36:00.179Z,8.27
2017-07-08T17:38:26.573Z,11.03
2017-07-08T17:40:52.914Z,5.83
2017-07-08T17:43:19.313Z,7.13
2017-07-08T17:45:46.374Z,7.57
2017-07-08T17:48:12.781Z,7.13
2017-07-08T17:50:39.161Z,6.77
2017-07-08T17:53:05.814Z,7.33
2017-07-08T17:55:41.150Z,6.83
2017-07-08T17:58:07.698Z,7.57
2017-07-08T18:00:34.050Z,6.23
2017-07-08T18:03:00.671Z,8.43
2017-07-08T18:05:27.256Z,7.20
2017-07-08T18:07:53.702Z,6.27
2017-07-08T18:10:20.021Z,7.30
2017-07-08T18:12:46.568Z,7.23
2017-07-08T18:15:12.915Z,7.00
2017-07-08T18:17:39.241Z,8.50
2017-07-08T18:20:05.580Z,6.93
2017-07-08T18:22:32.684Z,6.43
2017-07-08T18:24:59.010Z,6.43
2017-07-08T18:27:25.620Z,6.30
2017-07-08T18:29:52.540Z,8.00
2017-07-08T18:32:18.890Z,6.70
2017-07-08T18:34:45.253Z,8.50
2017-07-08T18:37:11.597Z,10.43
2017-07-08T18:39:37.938Z,7.73
2017-07-08T18:42:04.261Z,6.90
2017-07-08T18:44:30.616Z,7.10
2017-07-08T18:46:56.987Z,8.80
2017-07-08T18:49:23.572Z,6.83
2017-07-08T18:51:49.921Z,7.30
2017-07-08T18:54:16.276Z,8.30
2017-07-08T18:56:42.610Z,10.77
2017-07-08T18:59:09.038Z,7.87
2017-07-08T19:01:35.374Z,7.60
2017-07-08T19:04:01.736Z,8.50
2017-07-08T19:06:28.093Z,9.33
2017-07-08T19:08:54.415Z,9.43
2017-07-08T19:11:20.746Z,9.73
2017-07-08T19:13:47.097Z,9.33
2017-07-08T19:16:13.873Z,7.27
2017-07-08T19:18:40.401Z,7.90
2017-07-08T19:21:06.823Z,7.83
2017-07-08T19:23:33.498Z,7.80
2017-07-08T19:25:59.887Z,6.83
2017-07-08T19:28:26.991Z,7.87
2017-07-08T19:30:53.363Z,8.90
2017-07-08T19:33:19.725Z,8.47
2017-07-08T19:35:46.049Z,8.03
2017-07-08T19:38:12.714Z,8.07
2017-07-08T19:40:40.071Z,7.57
2017-07-08T19:43:06.397Z,9.53
2017-07-08T19:45:32.714Z,7.83
2017-07-08T19:47:59.321Z,8.33
2017-07-08T19:50:25.739Z,8.10
2017-07-08T19:52:52.917Z,8.37
2017-07-08T19:55:19.327Z,11.33
2017-07-08T19:57:46.610Z,9.13
2017-07-08T20:00:13.058Z,10.10
2017-07-08T20:02:39.433Z,8.07
2017-07-08T20:05:06.021Z,8.80
2017-07-08T20:07:32.382Z,10.80
2017-07-08T20:09:58.726Z,9.13
2017-07-08T20:12:25.141Z,8.73
2017-07-08T20:14:51.491Z,10.70
2017-07-08T20:17:18.583Z,11.57
2017-07-08T20:19:45.005Z,10.50
2017-07-08T20:22:11.449Z,10.73
2017-07-08T20:24:38.599Z,10.43
2017-07-08T20:27:05.862Z,12.00
2017-07-08T20:29:32.252Z,12.47
2017-07-08T20:31:58.730Z,11.67
2017-07-08T20:34:25.052Z,10.87
2017-07-08T20:36:51.502Z,11.80
2017-07-08T20:39:18.729Z,14.37
2017-07-08T20:41:45.136Z,13.53
2017-07-08T20:44:26.577Z,13.47
2017-07-08T20:46:53.201Z,15.10
2017-07-08T20:49:19.966Z,14.50
2017-07-08T20:51:46.613Z,15.23
2017-07-08T20:54:13.246Z,13.23
2017-07-08T20:56:40.582Z,15.40
2017-07-08T20:59:07.162Z,14.83
2017-07-08T21:01:33.831Z,14.77
2017-07-08T21:04:00.401Z,14.73
2017-07-08T21:06:26.924Z,15.93
2017-07-08T21:09:08.224Z,15.00
2017-07-08T21:11:35.185Z,15.30
2017-07-08T21:14:01.838Z,17.40
2017-07-08T21:16:28.438Z,15.60
2017-07-08T21:18:55.734Z,14.67
2017-07-08T21:21:22.299Z,16.07
2017-07-08T21:23:48.828Z,15.53
2017-07-08T21:26:15.404Z,16.40
2017-07-08T21:28:48.855Z,14.33
2017-07-08T21:31:15.509Z,15.40
2017-07-08T21:33:42.082Z,15.63
2017-07-08T21:36:08.686Z,15.13
2017-07-08T21:38:35.329Z,15.00
2017-07-08T21:41:02.591Z,14.53
2017-07-08T21:43:29.265Z,14.33
2017-07-08T21:45:55.860Z,14.33
2017-07-08T21:48:22.961Z,15.90
2017-07-08T21:50:57.425Z,15.17
2017-07-08T21:53:24.131Z,15.57
2017-07-08T21:55:51.005Z,15.17
2017-07-08T21:58:17.541Z,17.03
2017-07-08T22:00:44.149Z,16.37
2017-07-08T22:03:10.854Z,14.83
2017-07-08T22:05:37.429Z,15.13
2017-07-08T22:08:04.020Z,14.10
2017-07-08T22:10:30.526Z,15.87
2017-07-08T22:12:57.093Z,14.43
2017-07-08T22:15:23.720Z,14.90
2017-07-08T22:17:50.266Z,19.50
2017-07-08T22:20:16.865Z,13.40
2017-07-08T22:22:43.674Z,13.07
2017-07-08T22:25:10.257Z,14.17
2017-07-08T22:27:36.824Z,12.20
2017-07-08T22:30:03.424Z,14.00
2017-07-08T22:32:30.044Z,13.37
2017-07-08T22:34:56.726Z,15.33
2017-07-08T22:37:23.337Z,14.23
2017-07-08T22:39:49.893Z,15.40
2017-07-08T22:42:16.454Z,15.00
2017-07-08T22:44:42.976Z,16.80
2017-07-08T22:47:09.559Z,15.67
2017-07-08T22:49:36.150Z,15.93
2017-07-08T22:52:03.436Z,15.03
2017-07-08T22:54:30.202Z,14.87
2017-07-08T22:56:56.940Z,14.53
2017-07-08T22:59:23.633Z,12.60
2017-07-08T23:01:53.577Z,14.23
2017-07-08T23:04:20.090Z,11.37
2017-07-08T23:06:46.661Z,13.50
2017-07-08T23:09:13.325Z,13.10
2017-07-08T23:11:39.935Z,14.50
2017-07-08T23:14:08.418Z,12.73
2017-07-08T23:16:35.031Z,12.87
2017-07-08T23:19:01.966Z,16.60
2017-07-08T23:21:28.561Z,13.90
2017-07-08T23:23:55.148Z,13.40
2017-07-08T23:26:21.745Z,13.17
2017-07-08T23:28:48.383Z,15.03
2017-07-08T23:31:15.237Z,13.97
2017-07-08T23:33:41.870Z,15.00
2017-07-08T23:36:08.710Z,14.87
2017-07-08T23:38:35.367Z,15.50
2017-07-08T23:41:02.802Z,15.30
2017-07-08T23:43:29.414Z,14.60
2017-07-08T23:45:56.255Z,14.60
2017-07-08T23:48:22.835Z,14.30
2017-07-08T23:50:49.408Z,14.10
2017-07-08T23:53:16.689Z,16.87
2017-07-08T23:55:44.483Z,14.40
2017-07-08T23:58:11.128Z,14.80
